Time;durP1;ratioP1;P1;durP2;ratioP2;P2;SDS_P1;SDS_P2;PMS_P1;PMS_P2;Temp;Humidity;BMP_temperature;BMP_pressure;BME280_temperature;BME280_humidity;BME280_pressure;Samples;Min_cycle;Max_cycle;Signal;HPM_P1;HPM_P2
2022/10/19 00:01:03;;;;;;;11.80;6.22;;;;;;;-148.88;100.00;77154.63;4976381;28;20378;-84
2022/10/19 00:03:28;;;;;;;14.18;6.68;;;;;;;-148.88;100.00;77166.81;4976354;28;20014;-83
2022/10/19 00:05:53;;;;;;;12.68;6.45;;;;;;;-148.88;100.00;77162.75;4976177;28;20023;-83
2022/10/19 00:08:19;;;;;;;12.48;6.57;;;;;;;-148.88;100.00;77170.88;4976292;28;20502;-82
2022/10/19 00:10:44;;;;;;;13.48;6.60;;;;;;;-148.88;100.00;77183.06;4977767;28;20110;-84
2022/10/19 00:13:09;;;;;;;11.00;6.60;;;;;;;-148.88;100.00;77174.94;4975755;28;20121;-83
2022/10/19 00:15:39;;;;;;;12.90;7.28;;;;;;;-148.88;100.00;77176.97;4976345;28;20212;-84
2022/10/19 00:18:05;;;;;;;17.13;6.70;;;;;;;-148.88;100.00;77176.97;4976403;28;20026;-83
2022/10/19 00:20:30;;;;;;;10.15;7.43;;;;;;;-148.88;100.00;77183.06;4976969;28;20398;-83
2022/10/19 00:22:55;;;;;;;12.40;6.88;;;;;;;-148.88;100.00;77174.94;4976015;28;20097;-84
2022/10/19 00:25:21;;;;;;;12.00;7.03;;;;;;;-148.88;100.00;77191.19;4977294;28;20085;-84
2022/10/19 00:27:47;;;;;;;16.25;7.97;;;;;;;-148.88;100.00;77183.06;4976594;28;20050;-83
2022/10/19 00:30:12;;;;;;;11.95;6.68;;;;;;;-148.88;100.00;77183.06;4977052;28;20081;-83
2022/10/19 00:32:38;;;;;;;13.65;7.88;;;;;;;-148.88;100.00;77195.25;4976837;28;20031;-82
2022/10/19 00:35:03;;;;;;;13.43;8.15;;;;;;;-148.88;100.00;77191.19;4975844;28;20033;-83
2022/10/19 00:37:29;;;;;;;16.10;7.78;;;;;;;-148.88;100.00;77195.25;4975755;28;20031;-83
2022/10/19 00:39:54;;;;;;;14.15;8.20;;;;;;;-148.88;100.00;77199.31;4975551;28;20414;-83
2022/10/19 00:42:19;;;;;;;10.77;5.15;;;;;;;-148.88;100.00;77195.25;4976077;28;20030;-83
2022/10/19 00:44:45;;;;;;;14.30;7.90;;;;;;;-148.88;100.00;77187.13;4976054;28;20066;-84
2022/10/19 00:47:10;;;;;;;11.80;7.82;;;;;;;-148.88;100.00;77211.53;4976100;28;20125;-83
2022/10/19 00:49:40;;;;;;;17.63;8.82;;;;;;;-148.88;100.00;77221.69;4975659;28;20031;-83
2022/10/19 00:52:09;;;;;;;16.95;8.35;;;;;;;-148.88;100.00;77213.56;4977255;28;20101;-83
2022/10/19 00:54:37;;;;;;;14.20;8.93;;;;;;;-148.88;100.00;77227.78;4976066;28;20162;-83
2022/10/19 00:57:04;;;;;;;15.55;8.88;;;;;;;-148.88;100.00;77231.84;4975797;28;20114;-83
2022/10/19 00:59:30;;;;;;;17.45;10.10;;;;;;;-148.88;100.00;77229.81;4977023;28;20144;-83
2022/10/19 01:01:57;;;;;;;16.88;9.63;;;;;;;-148.88;100.00;77223.72;4977032;28;20027;-83
2022/10/19 01:04:24;;;;;;;13.18;8.35;;;;;;;-148.88;100.00;77215.59;4974999;28;20023;-81
2022/10/19 01:06:50;;;;;;;14.32;9.07;;;;;;;-148.88;100.00;77235.91;4975032;28;20157;-82
2022/10/19 01:09:16;;;;;;;11.48;5.57;;;;;;;-148.88;100.00;77244.03;4975147;28;20031;-83
2022/10/19 01:12:00;;;;;;;14.55;9.52;;;;;;;-148.88;100.00;77248.09;4974962;28;20026;-83
2022/10/19 01:14:46;;;;;;;11.63;6.38;;;;;;;-148.88;100.00;77268.41;4976216;28;20031;-81
2022/10/19 01:17:27;;;;;;;11.05;8.48;;;;;;;-148.88;100.00;77264.34;4975126;28;20034;-83
2022/10/19 01:20:13;;;;;;;10.05;6.18;;;;;;;-148.88;100.00;77264.34;4975310;28;20030;-83
2022/10/19 01:23:09;;;;;;;14.43;9.27;;;;;;;-148.88;100.00;77258.25;4974815;28;20030;-82
2022/10/19 01:25:43;;;;;;;10.60;5.70;;;;;;;-148.88;100.00;77252.16;4975561;28;20030;-83
2022/10/19 01:28:24;;;;;;;13.73;6.88;;;;;;;-148.88;100.00;77256.22;4976400;28;20046;-84
2022/10/19 01:31:01;;;;;;;14.77;10.02;;;;;;;-148.88;100.00;77264.34;4976517;28;20023;-84
2022/10/19 01:33:34;;;;;;;14.32;6.75;;;;;;;-148.88;100.00;77270.44;4976737;28;20030;-81
2022/10/19 01:36:27;;;;;;;10.40;5.60;;;;;;;-148.88;100.00;77258.25;4976849;28;20030;-83
2022/10/19 01:38:57;;;;;;;17.30;9.85;;;;;;;-148.88;100.00;77260.28;4976214;28;20022;-83
2022/10/19 01:42:04;;;;;;;11.82;8.90;;;;;;;-148.88;100.00;77262.31;4979711;28;20117;-84
2022/10/19 01:44:59;;;;;;;10.95;9.38;;;;;;;-148.88;100.00;77264.34;4985157;28;20029;-85
2022/10/19 01:47:31;;;;;;;12.15;9.60;;;;;;;-148.88;100.00;77260.28;4980431;28;20037;-84
2022/10/19 01:50:04;;;;;;;13.15;5.75;;;;;;;-148.88;100.00;77260.28;4978820;28;20066;-83
2022/10/19 01:52:31;;;;;;;6.80;5.07;;;;;;;-148.88;100.00;77264.34;4977714;28;20485;-83
2022/10/19 01:55:00;;;;;;;6.65;4.90;;;;;;;-148.88;100.00;77272.47;4977259;28;20533;-83
2022/10/19 01:57:31;;;;;;;10.18;7.82;;;;;;;-148.88;100.00;77274.50;4978188;28;20494;-82
2022/10/19 01:59:57;;;;;;;10.05;7.43;;;;;;;-148.88;100.00;77268.41;4975948;28;20022;-84
2022/10/19 02:02:25;;;;;;;14.88;9.00;;;;;;;-148.88;100.00;77288.72;4976594;28;20030;-83
2022/10/19 02:04:52;;;;;;;9.57;5.82;;;;;;;-148.88;100.00;77288.72;4978019;28;20051;-84
2022/10/19 02:07:20;;;;;;;13.10;5.75;;;;;;;-148.88;100.00;77278.56;4978354;28;20018;-84
2022/10/19 02:09:45;;;;;;;11.75;8.98;;;;;;;-148.88;100.00;77286.69;4977577;28;20089;-84
2022/10/19 02:12:12;;;;;;;9.25;6.00;;;;;;;-148.88;100.00;77296.88;4977783;28;20035;-85
2022/10/19 02:14:45;;;;;;;7.60;5.70;;;;;;;-148.88;100.00;77286.69;4975140;28;20034;-83
2022/10/19 02:17:16;;;;;;;10.73;6.03;;;;;;;-148.88;100.00;77300.94;4975631;28;20027;-83
2022/10/19 02:19:42;;;;;;;9.80;5.00;;;;;;;-148.88;100.00;77296.88;4975890;28;20027;-84
2022/10/19 02:22:08;;;;;;;15.65;10.05;;;;;;;-148.88;100.00;77296.88;4976229;28;20025;-84
2022/10/19 02:24:34;;;;;;;11.07;6.43;;;;;;;-148.88;100.00;77296.88;4976278;28;20500;-81
2022/10/19 02:27:03;;;;;;;14.82;9.93;;;;;;;-148.88;100.00;77290.75;4978198;28;20030;-85
2022/10/19 02:29:28;;;;;;;14.07;10.23;;;;;;;-148.88;100.00;77282.63;4976546;28;20373;-84
2022/10/19 02:31:54;;;;;;;16.33;10.30;;;;;;;-148.88;100.00;77272.47;4976767;28;20030;-84
2022/10/19 02:34:19;;;;;;;10.18;5.95;;;;;;;-148.88;100.00;77278.56;4977437;28;20026;-84
2022/10/19 02:36:44;;;;;;;10.25;6.28;;;;;;;-148.88;100.00;77282.63;4976544;28;20035;-82
2022/10/19 02:39:10;;;;;;;11.55;5.88;;;;;;;-148.88;100.00;77284.66;4976721;28;20026;-83
2022/10/19 02:41:41;;;;;;;13.00;5.80;;;;;;;-148.88;100.00;77284.66;4976609;28;20027;-81
2022/10/19 02:44:17;;;;;;;11.05;5.85;;;;;;;-148.88;100.00;77284.66;4976742;28;20497;-83
2022/10/19 02:47:02;;;;;;;14.68;9.18;;;;;;;-148.88;100.00;77280.59;4976601;28;20019;-83
2022/10/19 02:49:29;;;;;;;15.52;9.90;;;;;;;-148.88;100.00;77278.56;4977514;28;20098;-83
2022/10/19 02:51:57;;;;;;;10.30;5.55;;;;;;;-148.88;100.00;77282.63;4973676;28;20023;-80
2022/10/19 02:54:23;;;;;;;16.00;9.35;;;;;;;-148.88;100.00;77266.38;4973719;28;20023;-82
2022/10/19 02:56:49;;;;;;;11.73;6.25;;;;;;;-148.88;100.00;77264.34;4975221;28;20058;-82
2022/10/19 02:59:14;;;;;;;16.42;10.80;;;;;;;-148.88;100.00;77268.41;4974775;28;20121;-83
2022/10/19 03:01:39;;;;;;;13.20;6.50;;;;;;;-148.88;100.00;77284.66;4976081;28;20023;-83
2022/10/19 03:04:04;;;;;;;17.25;6.60;;;;;;;-148.88;100.00;77282.63;4975828;28;20043;-84
2022/10/19 03:06:30;;;;;;;17.05;6.82;;;;;;;-148.88;100.00;77272.47;4977447;28;20385;-82
2022/10/19 03:08:55;;;;;;;14.55;11.10;;;;;;;-148.88;100.00;77266.38;4975724;28;20027;-83
2022/10/19 03:11:20;;;;;;;13.05;5.88;;;;;;;-148.88;100.00;77305.00;4975658;28;20034;-83
2022/10/19 03:13:46;;;;;;;10.65;5.25;;;;;;;-148.88;100.00;77341.56;4975058;28;20030;-82
2022/10/19 03:16:12;;;;;;;15.77;10.23;;;;;;;-148.88;100.00;77341.56;4975910;28;20037;-84
2022/10/19 03:18:38;;;;;;;8.93;5.25;;;;;;;-148.88;100.00;77337.50;4975940;28;20061;-84
2022/10/19 03:21:06;;;;;;;11.32;8.65;;;;;;;-148.88;100.00;77353.75;4974442;28;20031;-85
2022/10/19 03:23:32;;;;;;;9.65;7.70;;;;;;;-148.88;100.00;77378.16;4974313;28;20019;-84
2022/10/19 03:25:57;;;;;;;7.90;4.88;;;;;;;-148.88;100.00;77361.88;4975365;28;20485;-83
2022/10/19 03:28:23;;;;;;;7.80;4.38;;;;;;;-148.88;100.00;77349.69;4972893;28;20038;-85
2022/10/19 03:30:51;;;;;;;14.50;10.10;;;;;;;-148.88;100.00;77333.44;4972939;28;20023;-83
2022/10/19 03:33:16;;;;;;;10.38;5.43;;;;;;;-148.88;100.00;77335.47;4973166;28;20031;-84
2022/10/19 03:35:42;;;;;;;11.13;9.38;;;;;;;-148.88;100.00;77321.25;4973124;28;20034;-84
2022/10/19 03:38:13;;;;;;;12.48;9.48;;;;;;;-148.88;100.00;77311.09;4973173;28;20045;-85
2022/10/19 03:40:38;;;;;;;17.08;9.73;;;;;;;-148.88;100.00;77305.00;4973167;28;20117;-85
2022/10/19 03:43:03;;;;;;;8.13;5.68;;;;;;;-148.88;100.00;77309.06;4974618;28;20058;-86
2022/10/19 03:45:29;;;;;;;10.80;6.57;;;;;;;-148.88;100.00;77315.16;4978840;28;20031;-85
2022/10/19 03:47:57;;;;;;;11.52;8.77;;;;;;;-148.88;100.00;77305.00;4977298;28;20031;-83
2022/10/19 03:50:23;;;;;;;13.85;8.90;;;;;;;-148.88;100.00;77309.06;4981054;28;20031;-82
2022/10/19 03:52:48;;;;;;;10.77;8.80;;;;;;;-148.88;100.00;77319.22;4983893;28;20058;-83
2022/10/19 03:55:15;;;;;;;11.57;9.02;;;;;;;-148.88;100.00;77313.13;4977146;28;20026;-84
2022/10/19 03:57:41;;;;;;;11.55;5.32;;;;;;;-148.88;100.00;77307.03;4977483;28;20027;-84
2022/10/19 04:00:07;;;;;;;12.23;8.85;;;;;;;-148.88;100.00;77309.06;4977631;28;20073;-83
2022/10/19 04:02:33;;;;;;;9.68;5.50;;;;;;;-148.88;100.00;77313.13;4976208;28;20027;-83
2022/10/19 04:04:58;;;;;;;10.05;5.30;;;;;;;-148.88;100.00;77309.06;4975770;28;20493;-83
2022/10/19 04:07:24;;;;;;;10.02;5.68;;;;;;;-148.88;100.00;77309.06;4976102;28;20022;-83
2022/10/19 04:09:49;;;;;;;11.85;8.30;;;;;;;-148.88;100.00;77309.06;4975575;28;20394;-83
2022/10/19 04:12:14;;;;;;;14.85;9.07;;;;;;;-148.88;100.00;77317.19;4976942;28;20154;-83
2022/10/19 04:14:40;;;;;;;9.48;8.55;;;;;;;-148.88;100.00;77315.16;4976669;28;20102;-83
2022/10/19 04:17:06;;;;;;;8.18;5.72;;;;;;;-148.88;100.00;77313.13;4977158;28;20027;-83
2022/10/19 04:19:31;;;;;;;10.65;8.88;;;;;;;-148.88;100.00;77317.19;4977643;28;20027;-83
2022/10/19 04:21:57;;;;;;;13.27;8.95;;;;;;;-148.88;100.00;77321.25;4977143;28;20023;-82
2022/10/19 04:24:25;;;;;;;9.60;5.18;;;;;;;-148.88;100.00;77325.31;4975689;28;20029;-82
2022/10/19 04:26:53;;;;;;;12.32;9.85;;;;;;;-148.88;100.00;77305.00;4975341;28;20029;-82
2022/10/19 04:29:19;;;;;;;13.52;9.90;;;;;;;-148.88;100.00;77300.94;4975245;28;20125;-82
2022/10/19 04:31:47;;;;;;;10.10;6.05;;;;;;;-148.88;100.00;77294.84;4976860;28;20482;-80
2022/10/19 04:34:12;;;;;;;16.00;10.75;;;;;;;-148.88;100.00;77298.91;4976360;28;20156;-83
2022/10/19 04:36:37;;;;;;;13.65;6.88;;;;;;;-148.88;100.00;77300.94;4976786;28;20551;-83
2022/10/19 04:39:04;;;;;;;10.75;6.30;;;;;;;-148.88;100.00;77294.84;4976237;28;20492;-82
2022/10/19 04:41:31;;;;;;;17.58;10.98;;;;;;;-148.88;100.00;77288.72;4975705;28;20532;-82
2022/10/19 04:44:00;;;;;;;24.88;11.50;;;;;;;-148.88;100.00;77305.00;4976563;28;20391;-82
2022/10/19 04:46:27;;;;;;;13.35;10.90;;;;;;;-148.88;100.00;77288.72;4975453;28;20029;-80
2022/10/19 04:48:52;;;;;;;13.20;6.88;;;;;;;-148.88;100.00;77292.81;4975647;28;20026;-82
2022/10/19 04:51:19;;;;;;;15.73;10.75;;;;;;;-148.88;100.00;77280.59;4976576;28;20398;-82
2022/10/19 04:53:44;;;;;;;16.33;11.48;;;;;;;-148.88;100.00;77276.53;4976064;28;20030;-82
2022/10/19 04:56:19;;;;;;;10.52;6.70;;;;;;;-148.88;100.00;77284.66;4975041;28;20027;-82
2022/10/19 04:58:45;;;;;;;17.10;10.60;;;;;;;-148.88;100.00;77286.69;4976503;28;20027;-81
2022/10/19 05:01:17;;;;;;;17.92;11.45;;;;;;;-148.88;100.00;77296.88;4975952;28;20389;-82
2022/10/19 05:03:46;;;;;;;15.88;10.73;;;;;;;-148.88;100.00;77282.63;4975084;28;20034;-82
2022/10/19 05:06:13;;;;;;;16.00;6.47;;;;;;;-148.88;100.00;77284.66;4976351;28;20065;-82
2022/10/19 05:08:39;;;;;;;13.35;9.50;;;;;;;-148.88;100.00;77296.88;4975351;28;20034;-81
2022/10/19 05:11:11;;;;;;;15.07;9.55;;;;;;;-148.88;100.00;77298.91;4975712;28;20385;-82
2022/10/19 05:13:36;;;;;;;13.07;9.88;;;;;;;-148.88;100.00;77292.81;4976084;28;20023;-82
2022/10/19 05:16:07;;;;;;;13.07;9.45;;;;;;;-148.88;100.00;77288.72;4975646;28;20029;-83
2022/10/19 05:18:33;;;;;;;13.00;9.40;;;;;;;-148.88;100.00;77276.53;4975217;28;20027;-83
2022/10/19 05:21:04;;;;;;;10.35;5.28;;;;;;;-148.88;100.00;77280.59;4974329;28;20031;-84
2022/10/19 05:23:29;;;;;;;11.60;5.57;;;;;;;-148.88;100.00;77278.56;4974368;28;20386;-83
2022/10/19 05:26:07;;;;;;;11.30;5.35;;;;;;;-148.88;100.00;77280.59;4974279;28;20041;-84
2022/10/19 05:28:33;;;;;;;14.52;8.48;;;;;;;-148.88;100.00;77264.34;4974658;28;20022;-85
2022/10/19 05:31:09;;;;;;;15.40;9.20;;;;;;;-148.88;100.00;77262.31;4974212;28;20034;-84
2022/10/19 05:33:35;;;;;;;14.55;9.18;;;;;;;-148.88;100.00;77248.09;4974615;28;20065;-85
2022/10/19 05:36:17;;;;;;;13.18;8.40;;;;;;;-148.88;100.00;77246.06;4976640;28;20121;-86
2022/10/19 05:38:44;;;;;;;10.93;6.10;;;;;;;-148.88;100.00;77239.97;4974184;28;20062;-84
2022/10/19 05:41:09;;;;;;;10.02;5.63;;;;;;;-148.88;100.00;77239.97;4974026;28;20023;-83
2022/10/19 05:43:35;;;;;;;10.98;8.02;;;;;;;-148.88;100.00;77242.00;4973739;28;20026;-85
2022/10/19 05:46:13;;;;;;;12.73;8.30;;;;;;;-148.88;100.00;77246.06;4973920;28;20057;-85
2022/10/19 05:48:39;;;;;;;12.70;7.95;;;;;;;-148.88;100.00;77242.00;4974925;28;20034;-84
2022/10/19 05:51:05;;;;;;;7.07;4.78;;;;;;;-148.88;100.00;77250.13;4973982;28;20030;-84
2022/10/19 05:53:32;;;;;;;7.68;4.80;;;;;;;-148.88;100.00;77248.09;4975119;28;20027;-83
2022/10/19 05:55:58;;;;;;;6.32;4.13;;;;;;;-148.88;100.00;77248.09;4973745;28;20078;-84
2022/10/19 05:58:23;;;;;;;9.43;6.28;;;;;;;-148.88;100.00;77256.22;4973767;28;20027;-84
2022/10/19 06:00:57;;;;;;;11.15;6.47;;;;;;;-148.88;100.00;77256.22;4973628;28;20019;-85
2022/10/19 06:03:24;;;;;;;7.82;4.57;;;;;;;-148.88;100.00;77256.22;4973690;28;20033;-84
2022/10/19 06:05:51;;;;;;;11.07;4.55;;;;;;;-148.88;100.00;77254.19;4973996;28;20031;-84
2022/10/19 06:08:17;;;;;;;7.63;4.32;;;;;;;-148.88;100.00;77239.97;4974886;28;20026;-84
2022/10/19 06:10:46;;;;;;;13.23;7.75;;;;;;;-148.88;100.00;77248.09;4974095;28;20037;-85
2022/10/19 06:13:12;;;;;;;13.13;7.25;;;;;;;-148.88;100.00;77239.97;4973705;28;20081;-84
2022/10/19 06:15:39;;;;;;;11.43;7.65;;;;;;;-148.88;100.00;77235.91;4974157;28;20034;-84
2022/10/19 06:18:11;;;;;;;10.73;7.28;;;;;;;-148.88;100.00;77242.00;4973335;28;20117;-85
2022/10/19 06:20:39;;;;;;;9.40;4.80;;;;;;;-148.88;100.00;77244.03;4973364;28;20035;-84
2022/10/19 06:23:06;;;;;;;11.80;7.15;;;;;;;-148.88;100.00;77235.91;4973473;28;20035;-84
2022/10/19 06:25:31;;;;;;;13.32;5.80;;;;;;;-148.88;100.00;77237.94;4974712;28;20050;-83
2022/10/19 06:27:57;;;;;;;12.65;5.32;;;;;;;-148.88;100.00;77242.00;4973466;28;20065;-85
2022/10/19 06:30:22;;;;;;;9.80;7.35;;;;;;;-148.88;100.00;77231.84;4973512;28;20050;-84
2022/10/19 06:32:48;;;;;;;14.02;7.82;;;;;;;-148.88;100.00;77229.81;4973120;28;20470;-85
2022/10/19 06:35:14;;;;;;;13.10;7.63;;;;;;;-148.88;100.00;77231.84;4973093;28;20019;-83
2022/10/19 06:37:40;;;;;;;10.48;7.22;;;;;;;-148.88;100.00;77227.78;4974648;28;20030;-83
2022/10/19 06:40:06;;;;;;;11.27;7.32;;;;;;;-148.88;100.00;77223.72;4974480;28;20027;-83
2022/10/19 06:42:37;;;;;;;9.98;4.50;;;;;;;-148.88;100.00;77219.66;4973364;28;20173;-82
2022/10/19 06:45:07;;;;;;;12.13;8.13;;;;;;;-148.88;100.00;77219.66;4973323;28;20121;-83
2022/10/19 06:47:33;;;;;;;14.68;7.82;;;;;;;-148.88;100.00;77215.59;4973440;28;20019;-84
2022/10/19 06:49:59;;;;;;;8.50;5.47;;;;;;;-148.88;100.00;77203.41;4973267;28;20038;-83
2022/10/19 06:52:24;;;;;;;12.55;6.93;;;;;;;-148.88;100.00;77199.31;4973273;28;20031;-83
2022/10/19 06:54:49;;;;;;;12.32;7.40;;;;;;;-148.88;100.00;77203.41;4973695;28;20027;-83
2022/10/19 06:57:15;;;;;;;13.02;7.38;;;;;;;-148.88;100.00;77209.50;4974471;28;20113;-83
2022/10/19 06:59:40;;;;;;;10.93;7.22;;;;;;;-148.88;100.00;77201.34;4974184;28;20037;-82
2022/10/19 07:02:05;;;;;;;13.57;7.38;;;;;;;-148.88;100.00;77199.31;4974746;28;20034;-82
2022/10/19 07:04:31;;;;;;;8.75;7.10;;;;;;;-148.88;100.00;77187.13;4974918;28;20019;-83
2022/10/19 07:06:56;;;;;;;9.93;5.10;;;;;;;-148.88;100.00;77191.19;4974216;28;20485;-83
2022/10/19 07:09:21;;;;;;;10.23;7.57;;;;;;;-148.88;100.00;77185.09;4973091;28;20038;-82
2022/10/19 07:11:47;;;;;;;12.40;7.60;;;;;;;-148.88;100.00;77179.00;4974269;28;20114;-82
2022/10/19 07:14:13;;;;;;;12.38;7.90;;;;;;;-148.88;100.00;77170.88;4973490;28;20023;-83
2022/10/19 07:16:38;;;;;;;12.55;7.93;;;;;;;-148.88;100.00;77176.97;4972937;28;20050;-83
2022/10/19 07:19:04;;;;;;;13.13;7.85;;;;;;;-148.88;100.00;77166.81;4973144;28;20097;-83
2022/10/19 07:21:29;;;;;;;11.93;7.32;;;;;;;-148.88;100.00;77158.69;4972901;28;20035;-83
2022/10/19 07:23:54;;;;;;;12.75;8.13;;;;;;;-148.88;100.00;77148.53;4975955;28;20015;-82
2022/10/19 07:26:26;;;;;;;13.55;8.93;;;;;;;-148.88;100.00;77179.00;4976458;28;20432;-84
2022/10/19 07:28:54;;;;;;;13.60;9.07;;;;;;;-148.88;100.00;77168.84;4977127;28;20038;-83
2022/10/19 07:31:21;;;;;;;11.60;8.40;;;;;;;-148.88;100.00;77176.97;4977758;28;20448;-83
2022/10/19 07:33:55;;;;;;;10.90;7.93;;;;;;;-148.88;100.00;77166.81;4977608;28;20035;-83
2022/10/19 07:36:20;;;;;;;16.38;6.40;;;;;;;-148.88;100.00;77191.19;4976545;28;20552;-84
2022/10/19 07:38:46;;;;;;;11.20;8.50;;;;;;;-148.88;100.00;77189.16;4976690;28;20110;-82
2022/10/19 07:41:14;;;;;;;13.55;9.02;;;;;;;-148.88;100.00;77201.34;4976155;28;20366;-83
2022/10/19 07:43:42;;;;;;;12.45;9.30;;;;;;;-148.88;100.00;77189.16;4976446;28;20500;-82
2022/10/19 07:46:11;;;;;;;12.02;8.88;;;;;;;-148.88;100.00;77189.16;4976882;28;20026;-84
2022/10/19 07:48:36;;;;;;;15.48;8.73;;;;;;;-148.88;100.00;77166.81;4977519;28;20397;-83
2022/10/19 07:51:04;;;;;;;14.10;9.07;;;;;;;-148.88;100.00;77170.88;4976392;28;20034;-83
2022/10/19 07:53:30;;;;;;;14.27;8.27;;;;;;;-148.88;100.00;77156.66;4976591;28;20113;-84
2022/10/19 07:56:02;;;;;;;13.48;5.85;;;;;;;-148.88;100.00;77154.63;4977842;28;20023;-82
2022/10/19 07:58:27;;;;;;;7.57;5.40;;;;;;;-148.88;100.00;77134.31;4977588;28;20027;-84
2022/10/19 08:01:02;;;;;;;10.23;8.00;;;;;;;-148.88;100.00;77134.31;4975713;28;20029;-83
2022/10/19 08:03:27;;;;;;;11.45;8.63;;;;;;;-148.88;100.00;77114.00;4975785;28;20030;-82
2022/10/19 08:05:53;;;;;;;12.55;8.43;;;;;;;-148.88;100.00;77105.84;4976881;28;20049;-84
2022/10/19 08:08:18;;;;;;;15.65;8.25;;;;;;;-148.88;100.00;77097.72;4977578;28;20030;-83
2022/10/19 08:10:43;;;;;;;9.93;7.57;;;;;;;-148.88;100.00;77081.47;4977081;28;20390;-82
2022/10/19 08:13:08;;;;;;;16.10;8.02;;;;;;;-148.88;100.00;77069.28;4977132;28;20058;-82
2022/10/19 08:15:34;;;;;;;11.82;8.25;;;;;;;-148.88;100.00;77048.97;4976326;28;20027;-84
2022/10/19 08:17:59;;;;;;;10.75;7.80;;;;;;;-148.88;100.00;77067.25;4977185;28;20521;-82
2022/10/19 08:20:25;;;;;;;12.35;7.43;;;;;;;-148.88;100.00;77053.03;4975847;28;20110;-83
2022/10/19 08:22:50;;;;;;;13.40;7.85;;;;;;;-148.88;100.00;77042.88;4976069;28;20027;-83
2022/10/19 08:25:16;;;;;;;11.10;8.07;;;;;;;-148.88;100.00;77028.66;4976127;28;20054;-83
2022/10/19 08:27:41;;;;;;;13.93;8.13;;;;;;;-148.88;100.00;77020.53;4975966;28;20026;-83
2022/10/19 08:30:07;;;;;;;10.50;7.63;;;;;;;-148.88;100.00;77014.44;4977187;28;20058;-83
2022/10/19 08:32:32;;;;;;;11.73;7.50;;;;;;;-148.88;100.00;76996.13;4977156;28;20041;-82
2022/10/19 08:34:57;;;;;;;12.15;7.47;;;;;;;-148.88;100.00;76979.88;4974398;28;20031;-84
2022/10/19 08:37:23;;;;;;;10.98;7.55;;;;;;;-148.88;100.00;76979.88;4976397;28;20062;-83
2022/10/19 08:39:48;;;;;;;11.30;7.68;;;;;;;-148.88;100.00;76971.75;4975164;28;20031;-82
2022/10/19 08:42:18;;;;;;;10.65;7.50;;;;;;;-148.88;100.00;76957.53;4975007;28;20508;-83
2022/10/19 08:45:12;;;;;;;11.25;7.78;;;;;;;-148.88;100.00;76959.56;4976914;28;20023;-83
2022/10/19 08:47:59;;;;;;;12.18;7.93;;;;;;;-148.88;100.00;76957.53;4975555;28;20112;-84
2022/10/19 08:50:37;;;;;;;13.18;8.25;;;;;;;-148.88;100.00;76947.38;4976212;28;20041;-83
2022/10/19 08:53:07;;;;;;;12.55;7.80;;;;;;;-148.88;100.00;76929.09;4976657;28;20027;-82
2022/10/19 08:55:52;;;;;;;13.73;8.05;;;;;;;-148.88;100.00;76914.88;4977639;28;20055;-83
2022/10/19 08:58:50;;;;;;;12.30;7.68;;;;;;;-148.88;100.00;76923.00;4975558;28;20030;-83
2022/10/19 09:01:22;;;;;;;10.98;7.65;;;;;;;-148.88;100.00;76908.78;4940126;28;20031;-83
2022/10/19 09:04:00;;;;;;;13.63;8.23;;;;;;;-148.88;100.00;76904.72;4975170;28;20027;-83
2022/10/19 09:06:29;;;;;;;13.15;7.65;;;;;;;-148.88;100.00;76882.34;4975115;28;20504;-81
2022/10/19 09:08:56;;;;;;;11.18;7.45;;;;;;;-148.88;100.00;76868.13;4975206;28;20442;-83
2022/10/19 09:11:24;;;;;;;11.90;7.90;;;;;;;-148.88;100.00;76872.19;4974718;28;20373;-82
2022/10/19 09:13:59;;;;;;;9.75;7.60;;;;;;;-148.88;100.00;76862.03;4974282;28;20027;-84
2022/10/19 09:16:24;;;;;;;14.68;8.18;;;;;;;-148.88;100.00;76857.97;4976849;28;20031;-83
2022/10/19 09:18:50;;;;;;;11.20;7.25;;;;;;;-148.88;100.00;76857.97;4975601;28;20023;-82
2022/10/19 09:21:20;;;;;;;15.25;7.47;;;;;;;-148.88;100.00;76837.66;4975650;28;20093;-83
2022/10/19 09:24:01;;;;;;;10.60;6.20;;;;;;;-148.88;97.79;76837.66;4974610;28;20500;-83
2022/10/19 09:26:40;;;;;;;9.93;6.50;;;;;;;-148.88;97.84;76817.34;4975677;28;20033;-82
2022/10/19 09:29:20;;;;;;;10.35;4.93;;;;;;;-148.88;94.47;76819.38;4974409;28;20118;-82
2022/10/19 09:31:45;;;;;;;11.57;4.30;;;;;;;-148.88;91.73;76809.22;4974355;28;20033;-83
2022/10/19 09:34:22;;;;;;;9.10;3.55;;;;;;;-148.88;90.07;76801.09;4975456;28;20026;-83
2022/10/19 09:36:56;;;;;;;9.23;3.80;;;;;;;-148.88;89.55;76780.78;4975551;28;20038;-83
2022/10/19 09:39:23;;;;;;;8.60;3.38;;;;;;;-148.88;89.19;76786.88;4974786;28;20081;-84
2022/10/19 09:41:50;;;;;;;10.68;3.67;;;;;;;-148.88;86.69;76784.84;4974531;28;20030;-83
2022/10/19 09:44:16;;;;;;;12.50;3.90;;;;;;;-148.88;88.26;76744.19;4975611;28;20030;-83
2022/10/19 09:46:51;;;;;;;9.20;3.42;;;;;;;-148.88;85.16;76736.06;4975306;28;20388;-84
2022/10/19 09:49:18;;;;;;;9.32;2.97;;;;;;;-148.88;84.48;76715.75;4974060;28;20035;-82
2022/10/19 09:51:50;;;;;;;9.93;3.17;;;;;;;-148.88;84.61;76675.13;4975646;28;20086;-84
2022/10/19 09:54:35;;;;;;;9.93;2.30;;;;;;;-148.88;79.84;76646.69;4993194;23;20522;-85
2022/10/19 09:57:02;;;;;;;6.90;1.77;;;;;;;-148.88;72.79;76664.97;4955214;29;20037;-86
2022/10/19 09:59:30;;;;;;;6.10;1.80;;;;;;;-148.88;73.08;76691.38;4955937;28;20505;-86
2022/10/19 10:02:03;;;;;;;8.70;2.28;;;;;;;-148.88;73.69;76725.91;4955843;28;20034;-85
2022/10/19 10:04:29;;;;;;;6.38;2.10;;;;;;;-148.88;72.50;76746.22;4955126;28;20058;-85
2022/10/19 10:06:55;;;;;;;5.78;1.63;;;;;;;-148.88;73.79;76752.31;4956882;28;20035;-85
2022/10/19 10:09:25;;;;;;;7.60;1.60;;;;;;;-148.88;74.32;76748.25;4956163;29;20174;-85
2022/10/19 10:11:53;;;;;;;11.00;2.15;;;;;;;-148.88;74.91;76725.91;4955830;28;20063;-85
2022/10/19 10:14:35;;;;;;;7.45;2.03;;;;;;;-148.88;75.50;76723.88;4953564;28;20020;-85
2022/10/19 10:17:03;;;;;;;8.68;1.90;;;;;;;-148.88;75.67;76738.09;4953615;28;20038;-86
2022/10/19 10:19:31;;;;;;;5.45;1.90;;;;;;;-148.88;74.88;76738.09;4954915;28;20034;-85
2022/10/19 10:21:58;;;;;;;8.02;2.05;;;;;;;-148.88;74.34;76740.13;4953703;29;20046;-86
2022/10/19 10:24:29;;;;;;;7.40;2.00;;;;;;;-148.88;75.54;76738.09;4953473;28;20034;-85
2022/10/19 10:27:00;;;;;;;10.50;2.40;;;;;;;-148.88;75.40;76732.00;4953467;29;20473;-85
2022/10/19 10:29:27;;;;;;;8.40;1.92;;;;;;;-148.88;74.97;76727.94;4954981;28;20023;-85
2022/10/19 10:32:11;;;;;;;10.20;2.17;;;;;;;-148.88;71.17;76715.75;4953903;28;20135;-85
2022/10/19 10:34:39;;;;;;;3.92;1.58;;;;;;;-148.88;72.84;76691.38;4954792;28;20495;-86
2022/10/19 10:37:12;;;;;;;4.68;1.60;;;;;;;-148.88;72.52;76695.44;4953309;29;20499;-85
2022/10/19 10:39:43;;;;;;;6.90;2.03;;;;;;;-148.88;70.93;76687.31;4969999;28;20035;-85
2022/10/19 10:42:13;;;;;;;5.07;1.55;;;;;;;-148.88;71.18;76679.19;4954718;28;20035;-85
2022/10/19 10:44:46;;;;;;;5.80;1.63;;;;;;;-148.88;71.75;76667.00;4953339;28;20019;-85
2022/10/19 10:47:13;;;;;;;6.10;1.80;;;;;;;-148.88;72.67;76660.91;4955322;28;20023;-85
2022/10/19 10:49:41;;;;;;;6.32;1.80;;;;;;;-148.88;72.71;76614.19;4954914;29;20023;-85
2022/10/19 10:52:11;;;;;;;5.97;1.73;;;;;;;-148.88;72.68;76577.59;4937568;29;20057;-86
2022/10/19 10:54:36;;;;;;;4.00;1.40;;;;;;;-148.88;69.12;76571.50;4954447;28;20035;-86
2022/10/19 10:57:15;;;;;;;6.15;1.90;;;;;;;-148.88;69.60;76595.88;4954320;28;20066;-86
2022/10/19 10:59:58;;;;;;;7.35;1.58;;;;;;;-148.88;69.92;76620.28;4956672;28;20031;-86
2022/10/19 11:02:38;;;;;;;8.43;1.80;;;;;;;-148.88;69.56;76622.31;4958982;28;20024;-85
2022/10/19 11:05:13;;;;;;;4.95;1.73;;;;;;;-148.88;70.57;76626.38;4958572;29;20419;-85
2022/10/19 11:07:44;;;;;;;7.80;1.98;;;;;;;-148.88;70.74;76599.94;4956990;29;20118;-84
2022/10/19 11:10:23;;;;;;;5.88;1.88;;;;;;;-148.88;72.47;76571.50;4957902;29;20094;-85
2022/10/19 11:13:03;;;;;;;5.60;1.60;;;;;;;-148.88;69.61;76532.91;4958486;28;20031;-85